A- A+ FrançaisEnglishEspañol中国

Services sur Internet Soldes sur Internet Des idées de cadeaux Météo Météo aéro

La météo à : Autours de vous Tarbes-Lourdes-PyrénéesToulouse-BlagnacLibourne-Artigues-De-LussacLe-Plessis-Belleville

carte TEMSI

Pour illustration, la carte TEMSI n'est pas mise à jour

La météo aéronautique pour les pilotes, la préparation du vol avec les METAR (METeorological Aerodrome Report, message d'observation des conditions météorologiques pour l'aviation) et Les TAF (Terminal Aerodrome Forecast : message de prévision à court terme des conditions météorologiques pour l'aviation). Et les autres ressources comme les VAC (Visual Approch Chart) et les NOTAM (Notice To Airman) pour préprer les vols.

Aéroport Batna (Algérie) / OACI DABT/ IATA BLJ

L'altitude de l'aéroport Batna est de 822 m = 2697 ft. Il est situé à proximité de Batna (Algérie). La météo générale à 5 jours est disponible pour Batna situé à 25 km.

METAR de l'aéroport Batna - DABT

DABT 102100Z 28010KT 9999 SCT020 04/01 Q1022

Décodage du METAR de l'aéroport Batna (DZ)

METAR émis par DABT le mardi 10 décembre 2019 à 21:00 heure TU, il y a 8 minutes.

La visibilité est de supérieure à 10 km = supérieure à 6.2 sm.

La température est de 4°C = 39 °F et le point rosée est de 1°C = 34 °F . Ce qui correspond à 81% d'humidité relative.

Le QNH est de 1022 hPa = 30.18 inHg

Vent de 10 kt = 19 km/h, orienté à 280°.

Nuages : Nuages épars à 2000 ft = 610 mètres.

TAF de l'aéroport Batna - DABT

DABT 101700Z 1018/1118 30016KT 6000 -RA FEW020TCU BKN026

DABT 101700Z 1018/1118 30016KT 6000 faible RA quelques nuages à 020TCU couverture nuageuse fragmentée à 026

Aéroport à proximité de Batna

Météo générale à 5 jours à Batna (25 km)Aéroport Telergma (40 km)Aéroport Constantine Ain El Bey (65 km)Aéroport Setif Ain Arnat (100 km)Aéroport Biskra (Mohamed Khider?) (119 km)Aéroport Jijell Taher (122 km)Aéroport Bejaia Soummam (154 km)

Vue aérienne de l'aéroport Batna

NOTAM de l'aéroport Batna

Les NOTAM sont fournis sans aucune garantie de leur actualité. Le pilote est le seul responsable de la vérification de sa validité avant de l'utiliser opérationnellement pour préparer un vol ou l'utiliser lors de sa navigation.

Pas de NOTAM

Sources des données